sensor_id;sensor_type;location;lat;lon;timestamp;pressure;altitude;pressure_sealevel;temperature;humidity
18509;BME280;9383;50.928;12.116;2022-10-16T00:01:18;98554.72;;;15.28;100.00
18509;BME280;9383;50.928;12.116;2022-10-16T00:03:47;98558.19;;;15.30;100.00
18509;BME280;9383;50.928;12.116;2022-10-16T00:06:20;98557.13;;;15.33;100.00
18509;BME280;9383;50.928;12.116;2022-10-16T00:08:48;98560.47;;;15.37;100.00
18509;BME280;9383;50.928;12.116;2022-10-16T00:11:18;98565.81;;;15.37;100.00
18509;BME280;9383;50.928;12.116;2022-10-16T00:13:46;98563.91;;;15.39;100.00
18509;BME280;9383;50.928;12.116;2022-10-16T00:16:15;98566.38;;;15.42;100.00
18509;BME280;9383;50.928;12.116;2022-10-16T00:18:43;98553.81;;;15.44;100.00
18509;BME280;9383;50.928;12.116;2022-10-16T00:21:12;98563.56;;;15.45;100.00
18509;BME280;9383;50.928;12.116;2022-10-16T00:23:39;98564.38;;;15.45;100.00
18509;BME280;9383;50.928;12.116;2022-10-16T00:26:16;98568.69;;;15.48;100.00
18509;BME280;9383;50.928;12.116;2022-10-16T00:28:45;98566.78;;;15.50;100.00
18509;BME280;9383;50.928;12.116;2022-10-16T00:31:12;98569.47;;;15.50;100.00
18509;BME280;9383;50.928;12.116;2022-10-16T00:33:39;98564.97;;;15.51;100.00
18509;BME280;9383;50.928;12.116;2022-10-16T00:36:07;98562.31;;;15.51;100.00
18509;BME280;9383;50.928;12.116;2022-10-16T00:38:54;98574.72;;;15.52;100.00
18509;BME280;9383;50.928;12.116;2022-10-16T00:41:23;98580.91;;;15.52;100.00
18509;BME280;9383;50.928;12.116;2022-10-16T00:43:54;98564.03;;;15.52;100.00
18509;BME280;9383;50.928;12.116;2022-10-16T00:46:33;98568.41;;;15.53;100.00
18509;BME280;9383;50.928;12.116;2022-10-16T00:49:05;98568.50;;;15.51;100.00
18509;BME280;9383;50.928;12.116;2022-10-16T00:51:37;98563.28;;;15.50;100.00
18509;BME280;9383;50.928;12.116;2022-10-16T00:54:09;98565.94;;;15.50;100.00
18509;BME280;9383;50.928;12.116;2022-10-16T00:56:37;98565.16;;;15.47;100.00
18509;BME280;9383;50.928;12.116;2022-10-16T00:59:07;98557.25;;;15.46;100.00
18509;BME280;9383;50.928;12.116;2022-10-16T01:01:37;98544.94;;;15.43;100.00
18509;BME280;9383;50.928;12.116;2022-10-16T01:04:04;98545.88;;;15.42;100.00
18509;BME280;9383;50.928;12.116;2022-10-16T01:06:43;98549.59;;;15.40;100.00
18509;BME280;9383;50.928;12.116;2022-10-16T01:12:01;98567.53;;;15.38;100.00
18509;BME280;9383;50.928;12.116;2022-10-16T01:14:58;98566.00;;;15.33;100.00
18509;BME280;9383;50.928;12.116;2022-10-16T01:18:18;98577.66;;;15.32;100.00
18509;BME280;9383;50.928;12.116;2022-10-16T01:25:59;98584.31;;;15.25;100.00
18509;BME280;9383;50.928;12.116;2022-10-16T01:28:41;98580.94;;;15.22;100.00
18509;BME280;9383;50.928;12.116;2022-10-16T01:31:15;98584.75;;;15.17;100.00
18509;BME280;9383;50.928;12.116;2022-10-16T01:33:52;98593.72;;;15.16;100.00
18509;BME280;9383;50.928;12.116;2022-10-16T01:36:31;98583.31;;;15.12;100.00
18509;BME280;9383;50.928;12.116;2022-10-16T01:39:01;98592.47;;;15.08;100.00
18509;BME280;9383;50.928;12.116;2022-10-16T01:41:35;98590.00;;;15.04;100.00
18509;BME280;9383;50.928;12.116;2022-10-16T01:44:11;98597.31;;;15.01;100.00
18509;BME280;9383;50.928;12.116;2022-10-16T01:46:42;98590.25;;;15.00;100.00
18509;BME280;9383;50.928;12.116;2022-10-16T01:49:10;98589.38;;;14.99;100.00
18509;BME280;9383;50.928;12.116;2022-10-16T01:51:38;98583.28;;;14.97;100.00
18509;BME280;9383;50.928;12.116;2022-10-16T01:54:07;98579.84;;;14.95;100.00
18509;BME280;9383;50.928;12.116;2022-10-16T01:56:35;98571.06;;;14.93;100.00
18509;BME280;9383;50.928;12.116;2022-10-16T01:59:06;98571.22;;;14.90;100.00
18509;BME280;9383;50.928;12.116;2022-10-16T02:01:36;98582.03;;;14.88;100.00
18509;BME280;9383;50.928;12.116;2022-10-16T02:04:10;98581.25;;;14.86;100.00
18509;BME280;9383;50.928;12.116;2022-10-16T02:06:39;98577.78;;;14.84;100.00
18509;BME280;9383;50.928;12.116;2022-10-16T02:09:06;98575.22;;;14.83;100.00
18509;BME280;9383;50.928;12.116;2022-10-16T02:11:32;98571.69;;;14.82;100.00
18509;BME280;9383;50.928;12.116;2022-10-16T02:14:03;98573.50;;;14.82;100.00
18509;BME280;9383;50.928;12.116;2022-10-16T02:16:42;98584.19;;;14.82;100.00
18509;BME280;9383;50.928;12.116;2022-10-16T02:19:10;98588.66;;;14.81;100.00
18509;BME280;9383;50.928;12.116;2022-10-16T02:21:57;98591.31;;;14.81;100.00
18509;BME280;9383;50.928;12.116;2022-10-16T02:24:39;98602.09;;;14.80;100.00
18509;BME280;9383;50.928;12.116;2022-10-16T02:27:19;98599.44;;;14.80;100.00
18509;BME280;9383;50.928;12.116;2022-10-16T02:29:52;98608.34;;;14.79;100.00
18509;BME280;9383;50.928;12.116;2022-10-16T02:32:27;98606.63;;;14.77;100.00
18509;BME280;9383;50.928;12.116;2022-10-16T02:34:57;98612.94;;;14.76;100.00
18509;BME280;9383;50.928;12.116;2022-10-16T02:37:25;98613.88;;;14.75;100.00
18509;BME280;9383;50.928;12.116;2022-10-16T02:39:54;98607.69;;;14.75;100.00
18509;BME280;9383;50.928;12.116;2022-10-16T02:42:29;98599.78;;;14.73;100.00
18509;BME280;9383;50.928;12.116;2022-10-16T02:44:56;98603.38;;;14.72;100.00
18509;BME280;9383;50.928;12.116;2022-10-16T02:47:22;98606.06;;;14.72;100.00
18509;BME280;9383;50.928;12.116;2022-10-16T02:49:48;98614.97;;;14.71;100.00
18509;BME280;9383;50.928;12.116;2022-10-16T02:52:15;98606.97;;;14.71;100.00
18509;BME280;9383;50.928;12.116;2022-10-16T02:54:42;98599.91;;;14.70;100.00
18509;BME280;9383;50.928;12.116;2022-10-16T02:57:08;98604.38;;;14.70;100.00
18509;BME280;9383;50.928;12.116;2022-10-16T02:59:34;98601.81;;;14.68;100.00
18509;BME280;9383;50.928;12.116;2022-10-16T03:02:01;98600.09;;;14.67;100.00
18509;BME280;9383;50.928;12.116;2022-10-16T03:04:27;98611.63;;;14.68;100.00
18509;BME280;9383;50.928;12.116;2022-10-16T03:06:54;98613.44;;;14.67;100.00
18509;BME280;9383;50.928;12.116;2022-10-16T03:09:21;98614.38;;;14.66;100.00
18509;BME280;9383;50.928;12.116;2022-10-16T03:11:48;98611.69;;;14.66;100.00
18509;BME280;9383;50.928;12.116;2022-10-16T03:14:14;98615.31;;;14.65;100.00
18509;BME280;9383;50.928;12.116;2022-10-16T03:16:41;98620.66;;;14.65;100.00
18509;BME280;9383;50.928;12.116;2022-10-16T03:19:07;98615.31;;;14.65;100.00
18509;BME280;9383;50.928;12.116;2022-10-16T03:21:34;98616.19;;;14.66;100.00
18509;BME280;9383;50.928;12.116;2022-10-16T03:24:00;98617.97;;;14.65;100.00
18509;BME280;9383;50.928;12.116;2022-10-16T03:26:27;98611.81;;;14.65;100.00
18509;BME280;9383;50.928;12.116;2022-10-16T03:28:53;98594.09;;;14.63;100.00
18509;BME280;9383;50.928;12.116;2022-10-16T03:31:20;98598.66;;;14.61;100.00
18509;BME280;9383;50.928;12.116;2022-10-16T03:33:47;98607.50;;;14.62;100.00
18509;BME280;9383;50.928;12.116;2022-10-16T03:36:13;98609.41;;;14.60;100.00
18509;BME280;9383;50.928;12.116;2022-10-16T03:38:40;98619.19;;;14.59;100.00
18509;BME280;9383;50.928;12.116;2022-10-16T03:41:06;98623.75;;;14.57;100.00
18509;BME280;9383;50.928;12.116;2022-10-16T03:43:34;98618.53;;;14.56;100.00
18509;BME280;9383;50.928;12.116;2022-10-16T03:46:00;98623.00;;;14.55;100.00
18509;BME280;9383;50.928;12.116;2022-10-16T03:48:27;98615.94;;;14.54;100.00
18509;BME280;9383;50.928;12.116;2022-10-16T03:50:53;98605.34;;;14.53;100.00
18509;BME280;9383;50.928;12.116;2022-10-16T03:53:21;98602.78;;;14.51;100.00
18509;BME280;9383;50.928;12.116;2022-10-16T03:55:47;98612.50;;;14.52;100.00
18509;BME280;9383;50.928;12.116;2022-10-16T03:58:14;98610.69;;;14.53;100.00
18509;BME280;9383;50.928;12.116;2022-10-16T04:00:45;98615.34;;;14.49;100.00
18509;BME280;9383;50.928;12.116;2022-10-16T04:03:12;98618.03;;;14.49;100.00
18509;BME280;9383;50.928;12.116;2022-10-16T04:05:39;98615.44;;;14.47;100.00
18509;BME280;9383;50.928;12.116;2022-10-16T04:08:06;98621.72;;;14.46;100.00
18509;BME280;9383;50.928;12.116;2022-10-16T04:10:33;98626.16;;;14.46;100.00
18509;BME280;9383;50.928;12.116;2022-10-16T04:12:59;98620.94;;;14.44;100.00
18509;BME280;9383;50.928;12.116;2022-10-16T04:15:26;98621.00;;;14.43;100.00
18509;BME280;9383;50.928;12.116;2022-10-16T04:17:52;98625.50;;;14.42;100.00
18509;BME280;9383;50.928;12.116;2022-10-16T04:20:19;98631.78;;;14.41;100.00
18509;BME280;9383;50.928;12.116;2022-10-16T04:22:45;98646.03;;;14.40;100.00
18509;BME280;9383;50.928;12.116;2022-10-16T04:25:12;98630.97;;;14.39;100.00
18509;BME280;9383;50.928;12.116;2022-10-16T04:27:39;98641.75;;;14.38;100.00
18509;BME280;9383;50.928;12.116;2022-10-16T04:30:06;98648.03;;;14.37;100.00
18509;BME280;9383;50.928;12.116;2022-10-16T04:32:33;98652.56;;;14.34;100.00
18509;BME280;9383;50.928;12.116;2022-10-16T04:35:00;98642.97;;;14.32;100.00
18509;BME280;9383;50.928;12.116;2022-10-16T04:37:27;98651.03;;;14.30;100.00
18509;BME280;9383;50.928;12.116;2022-10-16T04:39:54;98658.25;;;14.28;100.00
18509;BME280;9383;50.928;12.116;2022-10-16T04:42:21;98655.66;;;14.27;100.00
18509;BME280;9383;50.928;12.116;2022-10-16T04:44:47;98660.22;;;14.25;100.00
18509;BME280;9383;50.928;12.116;2022-10-16T04:47:14;98652.31;;;14.23;100.00
18509;BME280;9383;50.928;12.116;2022-10-16T04:49:41;98656.00;;;14.20;100.00
18509;BME280;9383;50.928;12.116;2022-10-16T04:52:07;98658.75;;;14.19;100.00
18509;BME280;9383;50.928;12.116;2022-10-16T04:54:35;98673.13;;;14.16;100.00
18509;BME280;9383;50.928;12.116;2022-10-16T04:57:02;98678.53;;;14.15;100.00
18509;BME280;9383;50.928;12.116;2022-10-16T04:59:28;98689.19;;;14.15;100.00
18509;BME280;9383;50.928;12.116;2022-10-16T05:01:55;98700.88;;;14.12;100.00
18509;BME280;9383;50.928;12.116;2022-10-16T05:04:21;98706.19;;;14.12;100.00
18509;BME280;9383;50.928;12.116;2022-10-16T05:06:48;98695.53;;;14.12;100.00
18509;BME280;9383;50.928;12.116;2022-10-16T05:09:27;98706.31;;;14.11;100.00
18509;BME280;9383;50.928;12.116;2022-10-16T05:11:53;98693.81;;;14.11;100.00
18509;BME280;9383;50.928;12.116;2022-10-16T05:14:20;98693.94;;;14.10;100.00
18509;BME280;9383;50.928;12.116;2022-10-16T05:16:46;98692.09;;;14.10;100.00
18509;BME280;9383;50.928;12.116;2022-10-16T05:19:14;98702.75;;;14.10;100.00
18509;BME280;9383;50.928;12.116;2022-10-16T05:21:40;98700.09;;;14.10;100.00
18509;BME280;9383;50.928;12.116;2022-10-16T05:24:07;98695.66;;;14.11;100.00
18509;BME280;9383;50.928;12.116;2022-10-16T05:26:33;98707.16;;;14.11;100.00
18509;BME280;9383;50.928;12.116;2022-10-16T05:29:00;98714.19;;;14.12;100.00
18509;BME280;9383;50.928;12.116;2022-10-16T05:31:27;98708.81;;;14.14;100.00
18509;BME280;9383;50.928;12.116;2022-10-16T05:34:01;98703.47;;;14.14;100.00
18509;BME280;9383;50.928;12.116;2022-10-16T05:36:27;98709.66;;;14.14;100.00
18509;BME280;9383;50.928;12.116;2022-10-16T05:38:54;98704.31;;;14.14;100.00
18509;BME280;9383;50.928;12.116;2022-10-16T05:41:20;98713.13;;;14.16;100.00
18509;BME280;9383;50.928;12.116;2022-10-16T05:43:48;98713.13;;;14.16;100.00
18509;BME280;9383;50.928;12.116;2022-10-16T05:46:15;98717.50;;;14.17;100.00
18509;BME280;9383;50.928;12.116;2022-10-16T05:48:42;98720.16;;;14.17;100.00
18509;BME280;9383;50.928;12.116;2022-10-16T05:51:11;98728.06;;;14.19;100.00
18509;BME280;9383;50.928;12.116;2022-10-16T05:53:39;98727.22;;;14.18;100.00
18509;BME280;9383;50.928;12.116;2022-10-16T05:56:08;98728.94;;;14.19;100.00
18509;BME280;9383;50.928;12.116;2022-10-16T05:58:36;98722.66;;;14.20;100.00
18509;BME280;9383;50.928;12.116;2022-10-16T06:01:19;98723.59;;;14.19;100.00
18509;BME280;9383;50.928;12.116;2022-10-16T06:03:47;98721.78;;;14.20;100.00
18509;BME280;9383;50.928;12.116;2022-10-16T06:06:27;98734.16;;;14.21;100.00
18509;BME280;9383;50.928;12.116;2022-10-16T06:08:55;98730.66;;;14.20;100.00
18509;BME280;9383;50.928;12.116;2022-10-16T06:11:25;98737.72;;;14.21;100.00
18509;BME280;9383;50.928;12.116;2022-10-16T06:13:54;98742.09;;;14.23;100.00
18509;BME280;9383;50.928;12.116;2022-10-16T06:16:21;98752.69;;;14.24;100.00
18509;BME280;9383;50.928;12.116;2022-10-16T06:18:50;98755.25;;;14.26;100.00
18509;BME280;9383;50.928;12.116;2022-10-16T06:21:18;98762.25;;;14.28;100.00
18509;BME280;9383;50.928;12.116;2022-10-16T06:23:45;98754.16;;;14.30;100.00
18509;BME280;9383;50.928;12.116;2022-10-16T06:26:15;98760.28;;;14.32;100.00
18509;BME280;9383;50.928;12.116;2022-10-16T06:28:42;98767.22;;;14.34;100.00
18509;BME280;9383;50.928;12.116;2022-10-16T06:31:09;98768.97;;;14.35;100.00
18509;BME280;9383;50.928;12.116;2022-10-16T06:33:37;98780.44;;;14.38;100.00
18509;BME280;9383;50.928;12.116;2022-10-16T06:36:09;98788.31;;;14.39;100.00
18509;BME280;9383;50.928;12.116;2022-10-16T06:38:37;98789.13;;;14.41;100.00
18509;BME280;9383;50.928;12.116;2022-10-16T06:41:04;98792.47;;;14.45;100.00
18509;BME280;9383;50.928;12.116;2022-10-16T06:43:32;98805.66;;;14.48;100.00
18509;BME280;9383;50.928;12.116;2022-10-16T06:46:00;98796.72;;;14.49;100.00
18509;BME280;9383;50.928;12.116;2022-10-16T06:48:28;98798.34;;;14.52;100.00
18509;BME280;9383;50.928;12.116;2022-10-16T06:53:29;98799.81;;;14.57;100.00
18509;BME280;9383;50.928;12.116;2022-10-16T06:55:57;98806.78;;;14.60;100.00
18509;BME280;9383;50.928;12.116;2022-10-16T06:58:24;98796.84;;;14.63;100.00
18509;BME280;9383;50.928;12.116;2022-10-16T07:00:55;98797.53;;;14.67;100.00
18509;BME280;9383;50.928;12.116;2022-10-16T07:03:23;98798.19;;;14.71;100.00
18509;BME280;9383;50.928;12.116;2022-10-16T07:05:49;98803.31;;;14.75;100.00
18509;BME280;9383;50.928;12.116;2022-10-16T07:08:16;98814.63;;;14.81;100.00
18509;BME280;9383;50.928;12.116;2022-10-16T07:10:43;98809.03;;;14.85;100.00
18509;BME280;9383;50.928;12.116;2022-10-16T07:13:09;98804.22;;;14.92;100.00
18509;BME280;9383;50.928;12.116;2022-10-16T07:15:39;98805.66;;;14.98;100.00
18509;BME280;9383;50.928;12.116;2022-10-16T07:18:06;98810.59;;;15.05;100.00
18509;BME280;9383;50.928;12.116;2022-10-16T07:20:33;98799.56;;;15.12;100.00
18509;BME280;9383;50.928;12.116;2022-10-16T07:23:00;98801.91;;;15.18;100.00
18509;BME280;9383;50.928;12.116;2022-10-16T07:25:26;98802.44;;;15.25;100.00
18509;BME280;9383;50.928;12.116;2022-10-16T07:27:52;98801.09;;;15.32;100.00
18509;BME280;9383;50.928;12.116;2022-10-16T07:30:23;98806.97;;;15.39;100.00
18509;BME280;9383;50.928;12.116;2022-10-16T07:32:49;98815.41;;;15.47;100.00
18509;BME280;9383;50.928;12.116;2022-10-16T07:35:16;98817.72;;;15.53;100.00
18509;BME280;9383;50.928;12.116;2022-10-16T07:37:46;98820.88;;;15.60;100.00
18509;BME280;9383;50.928;12.116;2022-10-16T07:40:12;98822.34;;;15.66;100.00
18509;BME280;9383;50.928;12.116;2022-10-16T07:42:39;98824.69;;;15.72;100.00
18509;BME280;9383;50.928;12.116;2022-10-16T07:45:06;98818.97;;;15.78;100.00
18509;BME280;9383;50.928;12.116;2022-10-16T07:47:33;98823.97;;;15.84;100.00
18509;BME280;9383;50.928;12.116;2022-10-16T07:49:59;98829.84;;;15.91;100.00
18509;BME280;9383;50.928;12.116;2022-10-16T07:52:25;98827.75;;;15.96;100.00
18509;BME280;9383;50.928;12.116;2022-10-16T07:54:52;98830.06;;;16.02;100.00
18509;BME280;9383;50.928;12.116;2022-10-16T07:57:19;98823.50;;;16.08;100.00
18509;BME280;9383;50.928;12.116;2022-10-16T07:59:46;98829.34;;;16.15;100.00
18509;BME280;9383;50.928;12.116;2022-10-16T08:02:13;98828.88;;;16.23;100.00
18509;BME280;9383;50.928;12.116;2022-10-16T08:04:39;98831.06;;;16.30;100.00
18509;BME280;9383;50.928;12.116;2022-10-16T08:07:07;98833.38;;;16.37;100.00
18509;BME280;9383;50.928;12.116;2022-10-16T08:09:34;98826.78;;;16.42;100.00
18509;BME280;9383;50.928;12.116;2022-10-16T08:12:01;98823.75;;;16.49;100.00
18509;BME280;9383;50.928;12.116;2022-10-16T08:14:28;98832.34;;;16.54;100.00
18509;BME280;9383;50.928;12.116;2022-10-16T08:16:55;98826.81;;;16.57;100.00
18509;BME280;9383;50.928;12.116;2022-10-16T08:19:21;98833.63;;;16.63;100.00
18509;BME280;9383;50.928;12.116;2022-10-16T08:21:48;98843.03;;;16.68;100.00
18509;BME280;9383;50.928;12.116;2022-10-16T08:24:15;98848.22;;;16.71;100.00
18509;BME280;9383;50.928;12.116;2022-10-16T08:26:42;98837.31;;;16.74;100.00
18509;BME280;9383;50.928;12.116;2022-10-16T08:29:09;98852.22;;;16.79;100.00
18509;BME280;9383;50.928;12.116;2022-10-16T08:31:35;98847.63;;;16.81;100.00
18509;BME280;9383;50.928;12.116;2022-10-16T08:34:02;98852.72;;;16.85;100.00
18509;BME280;9383;50.928;12.116;2022-10-16T08:36:28;98857.78;;;16.90;100.00
18509;BME280;9383;50.928;12.116;2022-10-16T08:38:55;98847.75;;;16.94;100.00
18509;BME280;9383;50.928;12.116;2022-10-16T08:44:39;98867.56;;;17.06;100.00
18509;BME280;9383;50.928;12.116;2022-10-16T08:47:44;98869.84;;;17.12;100.00
18509;BME280;9383;50.928;12.116;2022-10-16T08:50:23;98883.72;;;17.19;100.00
18509;BME280;9383;50.928;12.116;2022-10-16T08:52:52;98867.25;;;17.25;100.00
18509;BME280;9383;50.928;12.116;2022-10-16T08:55:43;98880.25;;;17.31;100.00
18509;BME280;9383;50.928;12.116;2022-10-16T08:58:13;98871.81;;;17.37;100.00
18509;BME280;9383;50.928;12.116;2022-10-16T09:00:40;98879.47;;;17.43;100.00
18509;BME280;9383;50.928;12.116;2022-10-16T09:04:44;98876.28;;;17.51;100.00
18509;BME280;9383;50.928;12.116;2022-10-16T09:06:57;98893.59;;;17.60;100.00
18509;BME280;9383;50.928;12.116;2022-10-16T09:09:54;98889.66;;;17.66;100.00
18509;BME280;9383;50.928;12.116;2022-10-16T09:15:35;98901.13;;;17.82;100.00
18509;BME280;9383;50.928;12.116;2022-10-16T09:18:16;98908.75;;;17.89;100.00
18509;BME280;9383;50.928;12.116;2022-10-16T09:21:01;98923.56;;;17.94;100.00
18509;BME280;9383;50.928;12.116;2022-10-16T09:23:34;98912.53;;;17.99;100.00
18509;BME280;9383;50.928;12.116;2022-10-16T09:26:02;98910.56;;;18.03;100.00
18509;BME280;9383;50.928;12.116;2022-10-16T09:28:29;98916.53;;;18.06;100.00
18509;BME280;9383;50.928;12.116;2022-10-16T09:30:58;98913.56;;;18.11;100.00
18509;BME280;9383;50.928;12.116;2022-10-16T09:33:29;98909.81;;;18.13;100.00
18509;BME280;9383;50.928;12.116;2022-10-16T09:35:57;98914.97;;;18.17;100.00
18509;BME280;9383;50.928;12.116;2022-10-16T09:38:29;98921.09;;;18.19;100.00
18509;BME280;9383;50.928;12.116;2022-10-16T09:41:22;98924.34;;;18.24;100.00
18509;BME280;9383;50.928;12.116;2022-10-16T09:43:59;98917.81;;;18.28;100.00
18509;BME280;9383;50.928;12.116;2022-10-16T09:46:32;98928.22;;;18.33;100.00
18509;BME280;9383;50.928;12.116;2022-10-16T09:49:18;98930.59;;;18.37;100.00
18509;BME280;9383;50.928;12.116;2022-10-16T09:51:46;98938.22;;;18.44;100.00
18509;BME280;9383;50.928;12.116;2022-10-16T09:54:19;98946.63;;;18.52;100.00
18509;BME280;9383;50.928;12.116;2022-10-16T09:56:48;98942.66;;;18.58;100.00
18509;BME280;9383;50.928;12.116;2022-10-16T09:59:22;98934.31;;;18.62;100.00
18509;BME280;9383;50.928;12.116;2022-10-16T10:01:52;98939.44;;;18.65;98.41
18509;BME280;9383;50.928;12.116;2022-10-16T10:04:24;98945.69;;;18.66;97.05
18509;BME280;9383;50.928;12.116;2022-10-16T10:06:53;98946.22;;;18.71;97.41
18509;BME280;9383;50.928;12.116;2022-10-16T10:11:55;98940.09;;;18.82;96.44
18509;BME280;9383;50.928;12.116;2022-10-16T10:14:28;98937.97;;;18.87;95.25
18509;BME280;9383;50.928;12.116;2022-10-16T10:19:53;98944.53;;;18.96;92.66
18509;BME280;9383;50.928;12.116;2022-10-16T10:22:27;98934.66;;;18.96;91.36
18509;BME280;9383;50.928;12.116;2022-10-16T10:25:12;98939.84;;;19.00;91.36
18509;BME280;9383;50.928;12.116;2022-10-16T10:33:31;98954.97;;;19.14;90.77
18509;BME280;9383;50.928;12.116;2022-10-16T10:39:01;98950.03;;;19.20;90.06
18509;BME280;9383;50.928;12.116;2022-10-16T10:49:57;98951.75;;;19.34;88.99
18509;BME280;9383;50.928;12.116;2022-10-16T10:52:37;98955.06;;;19.38;88.49
18509;BME280;9383;50.928;12.116;2022-10-16T10:58:34;98956.88;;;19.50;87.86
18509;BME280;9383;50.928;12.116;2022-10-16T11:01:09;98956.41;;;19.57;88.08
18509;BME280;9383;50.928;12.116;2022-10-16T11:03:56;98965.03;;;19.62;87.49
18509;BME280;9383;50.928;12.116;2022-10-16T11:06:36;98964.16;;;19.61;85.25
18509;BME280;9383;50.928;12.116;2022-10-16T11:10:14;98957.47;;;19.67;86.24
18509;BME280;9383;50.928;12.116;2022-10-16T11:12:21;98956.81;;;19.76;86.71
18509;BME280;9383;50.928;12.116;2022-10-16T11:15:00;98962.72;;;19.81;86.17
18509;BME280;9383;50.928;12.116;2022-10-16T11:17:29;98955.03;;;19.88;86.16
18509;BME280;9383;50.928;12.116;2022-10-16T11:20:45;98947.41;;;19.95;85.87
18509;BME280;9383;50.928;12.116;2022-10-16T11:23:01;98962.38;;;19.99;85.18
18509;BME280;9383;50.928;12.116;2022-10-16T11:25:33;98962.78;;;20.06;85.24
18509;BME280;9383;50.928;12.116;2022-10-16T11:28:26;98974.91;;;20.12;85.16
18509;BME280;9383;50.928;12.116;2022-10-16T11:31:22;98977.03;;;20.19;85.10
18509;BME280;9383;50.928;12.116;2022-10-16T11:36:45;98976.13;;;20.32;84.90
18509;BME280;9383;50.928;12.116;2022-10-16T11:39:23;98984.06;;;20.33;83.78
18509;BME280;9383;50.928;12.116;2022-10-16T11:42:10;98988.72;;;20.31;81.49
18509;BME280;9383;50.928;12.116;2022-10-16T11:48:05;98987.88;;;20.31;80.96
18509;BME280;9383;50.928;12.116;2022-10-16T11:50:54;98991.41;;;20.31;80.83
18509;BME280;9383;50.928;12.116;2022-10-16T11:53:37;98986.75;;;20.33;81.05
18509;BME280;9383;50.928;12.116;2022-10-16T11:56:05;98991.16;;;20.34;80.44
18509;BME280;9383;50.928;12.116;2022-10-16T11:58:37;98993.66;;;20.37;80.87
18509;BME280;9383;50.928;12.116;2022-10-16T12:01:44;98982.88;;;20.37;80.75
18509;BME280;9383;50.928;12.116;2022-10-16T12:07:09;98983.84;;;20.36;80.65
18509;BME280;9383;50.928;12.116;2022-10-16T12:09:39;98990.22;;;20.35;79.88
18509;BME280;9383;50.928;12.116;2022-10-16T12:12:28;98984.84;;;20.35;80.11
18509;BME280;9383;50.928;12.116;2022-10-16T12:17:45;98993.66;;;20.37;80.11
18509;BME280;9383;50.928;12.116;2022-10-16T12:22:51;98988.66;;;20.44;80.74
18509;BME280;9383;50.928;12.116;2022-10-16T12:25:27;98992.09;;;20.46;80.75
18509;BME280;9383;50.928;12.116;2022-10-16T12:30:41;99006.13;;;20.38;80.06
18509;BME280;9383;50.928;12.116;2022-10-16T12:33:25;99006.13;;;20.38;80.80
18509;BME280;9383;50.928;12.116;2022-10-16T12:35:54;99011.19;;;20.43;81.10
18509;BME280;9383;50.928;12.116;2022-10-16T12:38:36;99004.69;;;20.46;81.04
18509;BME280;9383;50.928;12.116;2022-10-16T12:41:09;99005.44;;;20.48;80.97
18509;BME280;9383;50.928;12.116;2022-10-16T12:43:44;98974.59;;;20.28;80.68
18509;BME280;9383;50.928;12.116;2022-10-16T12:48:39;99008.97;;;20.48;80.88
18509;BME280;9383;50.928;12.116;2022-10-16T12:51:11;99003.50;;;20.50;81.34
18509;BME280;9383;50.928;12.116;2022-10-16T12:53:38;99007.16;;;20.49;80.74
18509;BME280;9383;50.928;12.116;2022-10-16T12:56:15;98999.28;;;20.46;80.41
18509;BME280;9383;50.928;12.116;2022-10-16T12:59:17;99006.19;;;20.50;80.77
18509;BME280;9383;50.928;12.116;2022-10-16T13:10:25;99002.03;;;20.57;80.44
18509;BME280;9383;50.928;12.116;2022-10-16T13:12:57;98993.13;;;20.57;79.81
18509;BME280;9383;50.928;12.116;2022-10-16T13:15:57;98987.25;;;20.63;80.16
18509;BME280;9383;50.928;12.116;2022-10-16T13:23:38;99001.44;;;20.65;78.24
18509;BME280;9383;50.928;12.116;2022-10-16T13:28:57;99000.38;;;20.67;79.13
18509;BME280;9383;50.928;12.116;2022-10-16T13:31:25;99000.38;;;20.67;78.82
18509;BME280;9383;50.928;12.116;2022-10-16T13:33:54;99000.38;;;20.67;78.54
18509;BME280;9383;50.928;12.116;2022-10-16T13:36:43;99002.22;;;20.67;78.23
18509;BME280;9383;50.928;12.116;2022-10-16T13:41:39;99007.47;;;20.69;77.98
18509;BME280;9383;50.928;12.116;2022-10-16T13:44:15;99013.72;;;20.69;78.17
18509;BME280;9383;50.928;12.116;2022-10-16T13:46:44;99010.91;;;20.71;78.41
18509;BME280;9383;50.928;12.116;2022-10-16T13:49:17;99017.41;;;20.68;78.04
18509;BME280;9383;50.928;12.116;2022-10-16T13:52:04;99020.19;;;20.66;77.83
18509;BME280;9383;50.928;12.116;2022-10-16T13:54:31;99020.44;;;20.63;77.43
18509;BME280;9383;50.928;12.116;2022-10-16T13:57:05;99016.88;;;20.63;77.86
18509;BME280;9383;50.928;12.116;2022-10-16T13:59:34;99018.94;;;20.59;77.46
18509;BME280;9383;50.928;12.116;2022-10-16T14:02:18;99024.31;;;20.59;77.22
18509;BME280;9383;50.928;12.116;2022-10-16T14:04:47;99026.16;;;20.59;77.37
18509;BME280;9383;50.928;12.116;2022-10-16T14:07:18;99034.59;;;20.54;74.90
18509;BME280;9383;50.928;12.116;2022-10-16T14:09:51;99029.22;;;20.54;75.48
18509;BME280;9383;50.928;12.116;2022-10-16T14:12:19;99032.97;;;20.51;75.42
18509;BME280;9383;50.928;12.116;2022-10-16T14:14:48;99030.28;;;20.51;75.74
18509;BME280;9383;50.928;12.116;2022-10-16T14:17:20;99028.34;;;20.53;76.10
18509;BME280;9383;50.928;12.116;2022-10-16T14:19:50;99038.25;;;20.53;74.53
18509;BME280;9383;50.928;12.116;2022-10-16T14:22:36;99045.59;;;20.51;74.19
18509;BME280;9383;50.928;12.116;2022-10-16T14:27:58;99034.31;;;20.46;74.29
18509;BME280;9383;50.928;12.116;2022-10-16T14:30:26;99038.09;;;20.43;74.28
18509;BME280;9383;50.928;12.116;2022-10-16T14:32:58;99048.09;;;20.41;74.29
18509;BME280;9383;50.928;12.116;2022-10-16T14:35:36;99050.78;;;20.41;74.72
18509;BME280;9383;50.928;12.116;2022-10-16T14:38:05;99049.22;;;20.38;75.03
18509;BME280;9383;50.928;12.116;2022-10-16T14:40:35;99056.53;;;20.36;75.25